sensor_id;sensor_type;location;lat;lon;timestamp;temperature;humidity
15789;DHT22;59075;50.670;6.474;2022-09-09T05:00:16;24.00;99.90
15789;DHT22;59075;50.670;6.474;2022-09-09T05:02:44;24.00;99.90
15789;DHT22;59075;50.670;6.474;2022-09-09T05:05:10;24.00;99.90
15789;DHT22;59075;50.670;6.474;2022-09-09T05:07:37;23.90;99.90
15789;DHT22;59075;50.670;6.474;2022-09-09T05:10:04;23.90;99.90
15789;DHT22;59075;50.670;6.474;2022-09-09T05:12:31;23.90;99.90
15789;DHT22;59075;50.670;6.474;2022-09-09T05:14:58;24.00;99.90
15789;DHT22;59075;50.670;6.474;2022-09-09T05:17:26;23.90;99.90
15789;DHT22;59075;50.670;6.474;2022-09-09T05:19:53;23.90;99.90
15789;DHT22;59075;50.670;6.474;2022-09-09T05:22:19;23.90;99.90
15789;DHT22;59075;50.670;6.474;2022-09-09T05:24:46;23.90;99.90
15789;DHT22;59075;50.670;6.474;2022-09-09T05:27:14;23.90;99.90
15789;DHT22;59075;50.670;6.474;2022-09-09T05:29:41;23.90;99.90
15789;DHT22;59075;50.670;6.474;2022-09-09T05:32:09;23.90;99.90
15789;DHT22;59075;50.670;6.474;2022-09-09T05:34:37;23.90;99.90
15789;DHT22;59075;50.670;6.474;2022-09-09T05:37:04;23.90;99.90
15789;DHT22;59075;50.670;6.474;2022-09-09T05:39:33;23.90;99.90
15789;DHT22;59075;50.670;6.474;2022-09-09T05:42:01;23.90;99.90
15789;DHT22;59075;50.670;6.474;2022-09-09T05:44:30;23.90;99.90
15789;DHT22;59075;50.670;6.474;2022-09-09T05:46:57;23.90;99.90
15789;DHT22;59075;50.670;6.474;2022-09-09T05:49:24;23.90;99.90
15789;DHT22;59075;50.670;6.474;2022-09-09T05:51:52;23.90;99.90
15789;DHT22;59075;50.670;6.474;2022-09-09T05:54:19;23.90;99.90
15789;DHT22;59075;50.670;6.474;2022-09-09T05:56:46;23.90;99.90
15789;DHT22;59075;50.670;6.474;2022-09-09T05:59:15;23.90;99.90
15789;DHT22;59075;50.670;6.474;2022-09-09T06:01:41;23.90;99.90
15789;DHT22;59075;50.670;6.474;2022-09-09T06:04:08;23.90;99.90
15789;DHT22;59075;50.670;6.474;2022-09-09T06:06:36;23.90;99.90
15789;DHT22;59075;50.670;6.474;2022-09-09T06:09:08;24.10;99.90
15789;DHT22;59075;50.670;6.474;2022-09-09T06:11:37;23.90;99.90
15789;DHT22;59075;50.670;6.474;2022-09-09T06:14:04;24.00;99.90
15789;DHT22;59075;50.670;6.474;2022-09-09T06:16:32;23.90;99.90
15789;DHT22;59075;50.670;6.474;2022-09-09T06:18:59;24.00;99.90
15789;DHT22;59075;50.670;6.474;2022-09-09T06:21:29;23.90;99.90
15789;DHT22;59075;50.670;6.474;2022-09-09T06:23:57;24.00;99.90
15789;DHT22;59075;50.670;6.474;2022-09-09T06:26:26;23.90;99.90
15789;DHT22;59075;50.670;6.474;2022-09-09T06:28:55;24.00;99.90
15789;DHT22;59075;50.670;6.474;2022-09-09T06:31:25;23.90;99.90
15789;DHT22;59075;50.670;6.474;2022-09-09T06:33:53;24.00;99.90
15789;DHT22;59075;50.670;6.474;2022-09-09T06:36:21;23.90;99.90
15789;DHT22;59075;50.670;6.474;2022-09-09T06:38:48;24.00;99.90
15789;DHT22;59075;50.670;6.474;2022-09-09T06:41:17;24.00;99.90
15789;DHT22;59075;50.670;6.474;2022-09-09T06:43:47;24.00;99.90
15789;DHT22;59075;50.670;6.474;2022-09-09T06:46:15;24.00;99.90
15789;DHT22;59075;50.670;6.474;2022-09-09T06:48:44;24.00;99.90
15789;DHT22;59075;50.670;6.474;2022-09-09T06:51:12;23.90;99.90
15789;DHT22;59075;50.670;6.474;2022-09-09T06:53:42;24.00;99.90
15789;DHT22;59075;50.670;6.474;2022-09-09T06:56:19;23.90;99.90
15789;DHT22;59075;50.670;6.474;2022-09-09T06:58:47;24.00;99.90
15789;DHT22;59075;50.670;6.474;2022-09-09T07:01:16;23.90;99.90
15789;DHT22;59075;50.670;6.474;2022-09-09T07:03:45;23.90;99.90
15789;DHT22;59075;50.670;6.474;2022-09-09T07:06:14;24.00;99.90
15789;DHT22;59075;50.670;6.474;2022-09-09T07:08:42;23.90;99.90
15789;DHT22;59075;50.670;6.474;2022-09-09T07:11:09;23.90;99.90
15789;DHT22;59075;50.670;6.474;2022-09-09T07:13:36;23.90;99.90
15789;DHT22;59075;50.670;6.474;2022-09-09T07:16:06;24.00;99.90
15789;DHT22;59075;50.670;6.474;2022-09-09T07:18:33;23.90;99.90
15789;DHT22;59075;50.670;6.474;2022-09-09T07:21:01;23.90;99.90
15789;DHT22;59075;50.670;6.474;2022-09-09T07:23:28;24.00;99.90
15789;DHT22;59075;50.670;6.474;2022-09-09T07:25:55;23.90;99.90
15789;DHT22;59075;50.670;6.474;2022-09-09T07:28:22;24.00;99.90
15789;DHT22;59075;50.670;6.474;2022-09-09T07:30:55;23.90;99.90
15789;DHT22;59075;50.670;6.474;2022-09-09T07:33:24;24.00;99.90
15789;DHT22;59075;50.670;6.474;2022-09-09T07:35:52;23.90;99.90
15789;DHT22;59075;50.670;6.474;2022-09-09T07:38:20;24.00;99.90
15789;DHT22;59075;50.670;6.474;2022-09-09T07:40:48;24.00;99.90
15789;DHT22;59075;50.670;6.474;2022-09-09T07:43:14;24.00;99.90
15789;DHT22;59075;50.670;6.474;2022-09-09T07:45:41;23.90;99.90
15789;DHT22;59075;50.670;6.474;2022-09-09T07:48:09;24.00;99.90
15789;DHT22;59075;50.670;6.474;2022-09-09T07:50:37;24.00;99.90
15789;DHT22;59075;50.670;6.474;2022-09-09T07:53:04;24.00;99.90
15789;DHT22;59075;50.670;6.474;2022-09-09T07:55:31;24.00;99.90
15789;DHT22;59075;50.670;6.474;2022-09-09T07:57:58;24.00;99.90
15789;DHT22;59075;50.670;6.474;2022-09-09T08:00:25;24.00;99.90
15789;DHT22;59075;50.670;6.474;2022-09-09T08:02:52;24.00;99.90
15789;DHT22;59075;50.670;6.474;2022-09-09T08:05:19;24.10;99.90
15789;DHT22;59075;50.670;6.474;2022-09-09T08:07:49;24.10;99.90
15789;DHT22;59075;50.670;6.474;2022-09-09T08:10:15;24.10;99.90
15789;DHT22;59075;50.670;6.474;2022-09-09T08:12:43;24.10;99.90
15789;DHT22;59075;50.670;6.474;2022-09-09T08:15:10;24.10;99.90
15789;DHT22;59075;50.670;6.474;2022-09-09T08:17:38;24.10;99.90
15789;DHT22;59075;50.670;6.474;2022-09-09T08:20:05;24.10;99.90
15789;DHT22;59075;50.670;6.474;2022-09-09T08:22:32;24.10;99.90
15789;DHT22;59075;50.670;6.474;2022-09-09T08:25:00;24.20;99.90
15789;DHT22;59075;50.670;6.474;2022-09-09T08:27:27;24.10;99.90
15789;DHT22;59075;50.670;6.474;2022-09-09T08:29:54;24.10;99.90
15789;DHT22;59075;50.670;6.474;2022-09-09T08:32:21;24.10;99.90
15789;DHT22;59075;50.670;6.474;2022-09-09T08:34:48;24.10;99.90
15789;DHT22;59075;50.670;6.474;2022-09-09T08:37:15;24.10;99.90
15789;DHT22;59075;50.670;6.474;2022-09-09T08:39:41;24.10;99.90
15789;DHT22;59075;50.670;6.474;2022-09-09T08:42:29;24.10;99.90
15789;DHT22;59075;50.670;6.474;2022-09-09T08:45:21;24.10;99.90
15789;DHT22;59075;50.670;6.474;2022-09-09T08:48:00;24.10;99.90
15789;DHT22;59075;50.670;6.474;2022-09-09T08:50:31;24.10;99.90
15789;DHT22;59075;50.670;6.474;2022-09-09T08:53:02;24.10;99.90
15789;DHT22;59075;50.670;6.474;2022-09-09T08:55:37;24.20;99.90
15789;DHT22;59075;50.670;6.474;2022-09-09T08:58:13;24.20;99.90
15789;DHT22;59075;50.670;6.474;2022-09-09T09:00:48;24.20;99.90
15789;DHT22;59075;50.670;6.474;2022-09-09T09:03:24;24.20;99.90
15789;DHT22;59075;50.670;6.474;2022-09-09T09:06:01;24.20;99.90
15789;DHT22;59075;50.670;6.474;2022-09-09T09:08:36;24.20;99.90
15789;DHT22;59075;50.670;6.474;2022-09-09T09:11:06;24.20;99.90
15789;DHT22;59075;50.670;6.474;2022-09-09T09:13:39;24.20;99.90
15789;DHT22;59075;50.670;6.474;2022-09-09T09:16:17;24.30;99.90
15789;DHT22;59075;50.670;6.474;2022-09-09T09:18:45;24.20;99.90
15789;DHT22;59075;50.670;6.474;2022-09-09T09:21:16;24.30;99.90
15789;DHT22;59075;50.670;6.474;2022-09-09T09:23:51;24.20;99.90
15789;DHT22;59075;50.670;6.474;2022-09-09T09:26:21;24.20;99.90
15789;DHT22;59075;50.670;6.474;2022-09-09T09:28:50;24.30;99.90
15789;DHT22;59075;50.670;6.474;2022-09-09T09:31:21;24.30;99.90
15789;DHT22;59075;50.670;6.474;2022-09-09T09:33:50;24.30;99.90
15789;DHT22;59075;50.670;6.474;2022-09-09T09:36:18;24.30;99.90
15789;DHT22;59075;50.670;6.474;2022-09-09T09:38:53;24.30;99.90
15789;DHT22;59075;50.670;6.474;2022-09-09T09:41:32;24.30;99.90
15789;DHT22;59075;50.670;6.474;2022-09-09T09:44:01;24.30;99.90
15789;DHT22;59075;50.670;6.474;2022-09-09T09:46:30;24.30;99.90
15789;DHT22;59075;50.670;6.474;2022-09-09T09:48:58;24.30;99.90
15789;DHT22;59075;50.670;6.474;2022-09-09T09:51:26;24.30;99.90
15789;DHT22;59075;50.670;6.474;2022-09-09T09:53:53;24.30;99.90
15789;DHT22;59075;50.670;6.474;2022-09-09T09:56:27;24.30;99.90
15789;DHT22;59075;50.670;6.474;2022-09-09T09:58:55;24.30;99.90
15789;DHT22;59075;50.670;6.474;2022-09-09T10:01:24;24.30;99.90
15789;DHT22;59075;50.670;6.474;2022-09-09T10:03:54;24.30;99.90
15789;DHT22;59075;50.670;6.474;2022-09-09T10:06:30;24.30;99.90
15789;DHT22;59075;50.670;6.474;2022-09-09T10:08:59;24.30;99.90
15789;DHT22;59075;50.670;6.474;2022-09-09T10:11:38;24.30;99.90
15789;DHT22;59075;50.670;6.474;2022-09-09T10:14:18;24.30;99.90
15789;DHT22;59075;50.670;6.474;2022-09-09T10:16:59;24.30;99.90
15789;DHT22;59075;50.670;6.474;2022-09-09T10:19:30;24.30;99.90
15789;DHT22;59075;50.670;6.474;2022-09-09T10:22:11;24.30;99.90
15789;DHT22;59075;50.670;6.474;2022-09-09T10:25:20;24.30;99.90
15789;DHT22;59075;50.670;6.474;2022-09-09T10:28:04;24.30;99.90
15789;DHT22;59075;50.670;6.474;2022-09-09T10:30:43;24.30;99.90
15789;DHT22;59075;50.670;6.474;2022-09-09T10:33:21;24.30;99.90
15789;DHT22;59075;50.670;6.474;2022-09-09T10:35:59;24.40;99.90
15789;DHT22;59075;50.670;6.474;2022-09-09T10:38:30;24.40;99.90
15789;DHT22;59075;50.670;6.474;2022-09-09T10:41:22;24.40;99.90
15789;DHT22;59075;50.670;6.474;2022-09-09T10:44:06;24.40;99.90
15789;DHT22;59075;50.670;6.474;2022-09-09T10:46:46;24.50;99.90
15789;DHT22;59075;50.670;6.474;2022-09-09T10:49:23;24.40;99.90
15789;DHT22;59075;50.670;6.474;2022-09-09T10:52:02;24.50;99.90
15789;DHT22;59075;50.670;6.474;2022-09-09T10:54:51;24.50;99.90
15789;DHT22;59075;50.670;6.474;2022-09-09T10:57:27;24.50;99.90
15789;DHT22;59075;50.670;6.474;2022-09-09T10:59:59;24.50;99.90
15789;DHT22;59075;50.670;6.474;2022-09-09T11:02:31;24.50;99.90
15789;DHT22;59075;50.670;6.474;2022-09-09T11:05:03;24.50;99.90
15789;DHT22;59075;50.670;6.474;2022-09-09T11:07:37;24.50;99.90
15789;DHT22;59075;50.670;6.474;2022-09-09T11:10:12;24.50;99.90
15789;DHT22;59075;50.670;6.474;2022-09-09T11:12:43;24.50;99.90
15789;DHT22;59075;50.670;6.474;2022-09-09T11:15:17;24.50;99.90
15789;DHT22;59075;50.670;6.474;2022-09-09T11:17:48;24.50;99.90
15789;DHT22;59075;50.670;6.474;2022-09-09T11:20:18;24.50;99.90
15789;DHT22;59075;50.670;6.474;2022-09-09T11:22:48;24.50;99.90
15789;DHT22;59075;50.670;6.474;2022-09-09T11:25:18;24.50;99.90
15789;DHT22;59075;50.670;6.474;2022-09-09T11:27:57;24.60;99.90
15789;DHT22;59075;50.670;6.474;2022-09-09T11:30:34;24.50;99.90
15789;DHT22;59075;50.670;6.474;2022-09-09T11:33:31;24.50;99.90
15789;DHT22;59075;50.670;6.474;2022-09-09T11:39:17;24.50;99.90
15789;DHT22;59075;50.670;6.474;2022-09-09T11:41:50;24.50;99.90
15789;DHT22;59075;50.670;6.474;2022-09-09T11:44:21;24.50;99.90
15789;DHT22;59075;50.670;6.474;2022-09-09T11:46:51;24.40;99.90
15789;DHT22;59075;50.670;6.474;2022-09-09T11:49:27;24.50;99.90
15789;DHT22;59075;50.670;6.474;2022-09-09T11:51:55;24.50;99.90
15789;DHT22;59075;50.670;6.474;2022-09-09T11:54:29;24.50;99.90
15789;DHT22;59075;50.670;6.474;2022-09-09T11:56:56;24.60;99.90
15789;DHT22;59075;50.670;6.474;2022-09-09T11:59:24;24.50;99.90
15789;DHT22;59075;50.670;6.474;2022-09-09T12:01:55;24.60;99.90
15789;DHT22;59075;50.670;6.474;2022-09-09T12:04:31;24.60;99.90
15789;DHT22;59075;50.670;6.474;2022-09-09T12:07:01;24.60;99.90
15789;DHT22;59075;50.670;6.474;2022-09-09T12:09:36;24.60;99.90
15789;DHT22;59075;50.670;6.474;2022-09-09T12:12:18;24.60;99.90
15789;DHT22;59075;50.670;6.474;2022-09-09T12:14:56;24.60;99.90
15789;DHT22;59075;50.670;6.474;2022-09-09T12:17:25;24.50;99.90
15789;DHT22;59075;50.670;6.474;2022-09-09T12:20:01;24.60;99.90
15789;DHT22;59075;50.670;6.474;2022-09-09T12:22:38;24.60;99.90
15789;DHT22;59075;50.670;6.474;2022-09-09T12:25:18;24.60;99.90
15789;DHT22;59075;50.670;6.474;2022-09-09T12:27:59;24.60;99.90
15789;DHT22;59075;50.670;6.474;2022-09-09T12:30:31;24.60;99.90
15789;DHT22;59075;50.670;6.474;2022-09-09T12:33:02;24.60;99.90
15789;DHT22;59075;50.670;6.474;2022-09-09T12:35:30;24.50;99.90
15789;DHT22;59075;50.670;6.474;2022-09-09T12:38:01;24.60;99.90
15789;DHT22;59075;50.670;6.474;2022-09-09T12:40:30;24.50;99.90
15789;DHT22;59075;50.670;6.474;2022-09-09T12:43:00;24.60;99.90
15789;DHT22;59075;50.670;6.474;2022-09-09T12:45:30;24.50;99.90
15789;DHT22;59075;50.670;6.474;2022-09-09T12:47:59;24.50;99.90
15789;DHT22;59075;50.670;6.474;2022-09-09T12:50:29;24.50;99.90
15789;DHT22;59075;50.670;6.474;2022-09-09T12:53:00;24.50;99.90
15789;DHT22;59075;50.670;6.474;2022-09-09T12:55:30;24.50;99.90
15789;DHT22;59075;50.670;6.474;2022-09-09T12:57:59;24.50;99.90
15789;DHT22;59075;50.670;6.474;2022-09-09T13:00:30;24.60;99.90
15789;DHT22;59075;50.670;6.474;2022-09-09T13:02:58;24.60;99.90
15789;DHT22;59075;50.670;6.474;2022-09-09T13:05:27;24.60;99.90
15789;DHT22;59075;50.670;6.474;2022-09-09T13:08:03;24.60;99.90
15789;DHT22;59075;50.670;6.474;2022-09-09T13:10:33;24.50;99.90
15789;DHT22;59075;50.670;6.474;2022-09-09T13:13:01;24.50;99.90
15789;DHT22;59075;50.670;6.474;2022-09-09T13:15:29;24.50;99.90
15789;DHT22;59075;50.670;6.474;2022-09-09T13:17:58;24.50;99.90
15789;DHT22;59075;50.670;6.474;2022-09-09T13:20:27;24.50;99.90
15789;DHT22;59075;50.670;6.474;2022-09-09T13:22:55;24.60;99.90
15789;DHT22;59075;50.670;6.474;2022-09-09T13:25:26;24.60;99.90
15789;DHT22;59075;50.670;6.474;2022-09-09T13:27:56;24.50;99.90
15789;DHT22;59075;50.670;6.474;2022-09-09T13:30:26;24.50;99.90
15789;DHT22;59075;50.670;6.474;2022-09-09T13:33:05;24.50;99.90
15789;DHT22;59075;50.670;6.474;2022-09-09T13:35:33;24.60;99.90
15789;DHT22;59075;50.670;6.474;2022-09-09T13:38:07;24.60;99.90
15789;DHT22;59075;50.670;6.474;2022-09-09T13:40:37;24.50;99.90
15789;DHT22;59075;50.670;6.474;2022-09-09T13:43:04;24.50;99.90
15789;DHT22;59075;50.670;6.474;2022-09-09T13:45:31;24.50;99.90
15789;DHT22;59075;50.670;6.474;2022-09-09T13:48:08;24.50;99.90
15789;DHT22;59075;50.670;6.474;2022-09-09T13:50:36;24.50;99.90
15789;DHT22;59075;50.670;6.474;2022-09-09T13:53:02;24.50;99.90
15789;DHT22;59075;50.670;6.474;2022-09-09T13:55:30;24.50;99.90
15789;DHT22;59075;50.670;6.474;2022-09-09T13:57:59;24.60;99.90
15789;DHT22;59075;50.670;6.474;2022-09-09T14:00:29;24.60;99.90
15789;DHT22;59075;50.670;6.474;2022-09-09T14:02:57;24.60;99.90
15789;DHT22;59075;50.670;6.474;2022-09-09T14:05:25;24.60;99.90
15789;DHT22;59075;50.670;6.474;2022-09-09T14:07:53;24.60;99.90
15789;DHT22;59075;50.670;6.474;2022-09-09T14:10:19;24.60;99.90
15789;DHT22;59075;50.670;6.474;2022-09-09T14:12:46;24.70;99.90
15789;DHT22;59075;50.670;6.474;2022-09-09T14:15:14;24.60;99.90
15789;DHT22;59075;50.670;6.474;2022-09-09T14:17:41;24.60;99.90
15789;DHT22;59075;50.670;6.474;2022-09-09T14:20:09;24.60;99.90
15789;DHT22;59075;50.670;6.474;2022-09-09T14:22:37;24.60;99.90
15789;DHT22;59075;50.670;6.474;2022-09-09T14:25:06;24.60;99.90
15789;DHT22;59075;50.670;6.474;2022-09-09T14:27:33;24.60;99.90
15789;DHT22;59075;50.670;6.474;2022-09-09T14:30:00;25.00;99.90
15789;DHT22;59075;50.670;6.474;2022-09-09T14:32:28;24.50;99.90
15789;DHT22;59075;50.670;6.474;2022-09-09T14:34:55;24.60;99.90
15789;DHT22;59075;50.670;6.474;2022-09-09T14:37:22;24.60;99.90
15789;DHT22;59075;50.670;6.474;2022-09-09T14:39:49;24.60;99.90
15789;DHT22;59075;50.670;6.474;2022-09-09T14:42:17;24.60;99.90
15789;DHT22;59075;50.670;6.474;2022-09-09T14:44:44;24.50;99.90
15789;DHT22;59075;50.670;6.474;2022-09-09T14:47:10;24.50;99.90
15789;DHT22;59075;50.670;6.474;2022-09-09T14:49:38;24.50;99.90
15789;DHT22;59075;50.670;6.474;2022-09-09T14:52:05;24.50;99.90
15789;DHT22;59075;50.670;6.474;2022-09-09T14:54:32;24.50;99.90
15789;DHT22;59075;50.670;6.474;2022-09-09T14:56:59;24.50;99.90
15789;DHT22;59075;50.670;6.474;2022-09-09T14:59:26;24.50;99.90
15789;DHT22;59075;50.670;6.474;2022-09-09T15:01:53;24.40;99.90
15789;DHT22;59075;50.670;6.474;2022-09-09T15:04:19;24.50;99.90
15789;DHT22;59075;50.670;6.474;2022-09-09T15:06:48;24.40;99.90
15789;DHT22;59075;50.670;6.474;2022-09-09T15:09:17;24.40;99.90
15789;DHT22;59075;50.670;6.474;2022-09-09T15:11:44;24.40;99.90
15789;DHT22;59075;50.670;6.474;2022-09-09T15:14:10;24.40;99.90
15789;DHT22;59075;50.670;6.474;2022-09-09T15:16:38;24.40;99.90
15789;DHT22;59075;50.670;6.474;2022-09-09T15:19:05;24.40;99.90
15789;DHT22;59075;50.670;6.474;2022-09-09T15:21:34;24.40;99.90
15789;DHT22;59075;50.670;6.474;2022-09-09T15:24:02;24.40;99.90
15789;DHT22;59075;50.670;6.474;2022-09-09T15:26:32;24.40;99.90
15789;DHT22;59075;50.670;6.474;2022-09-09T15:28:59;24.50;99.90
15789;DHT22;59075;50.670;6.474;2022-09-09T15:31:28;24.40;99.90
15789;DHT22;59075;50.670;6.474;2022-09-09T15:33:57;24.40;99.90
15789;DHT22;59075;50.670;6.474;2022-09-09T15:36:28;24.40;99.90
15789;DHT22;59075;50.670;6.474;2022-09-09T15:38:55;24.50;99.90
15789;DHT22;59075;50.670;6.474;2022-09-09T15:41:24;24.50;99.90
15789;DHT22;59075;50.670;6.474;2022-09-09T15:43:52;24.50;99.90
15789;DHT22;59075;50.670;6.474;2022-09-09T15:46:24;24.40;99.90
15789;DHT22;59075;50.670;6.474;2022-09-09T15:48:53;24.50;99.90
15789;DHT22;59075;50.670;6.474;2022-09-09T15:51:20;24.50;99.90
15789;DHT22;59075;50.670;6.474;2022-09-09T15:53:48;24.50;99.90
15789;DHT22;59075;50.670;6.474;2022-09-09T15:56:14;24.50;99.90
15789;DHT22;59075;50.670;6.474;2022-09-09T15:58:42;24.50;99.90
15789;DHT22;59075;50.670;6.474;2022-09-09T16:01:09;24.50;99.90
15789;DHT22;59075;50.670;6.474;2022-09-09T16:03:39;24.40;99.90
15789;DHT22;59075;50.670;6.474;2022-09-09T16:06:07;24.40;99.90
15789;DHT22;59075;50.670;6.474;2022-09-09T16:08:34;24.40;99.90
15789;DHT22;59075;50.670;6.474;2022-09-09T16:11:05;24.40;99.90
15789;DHT22;59075;50.670;6.474;2022-09-09T16:13:41;24.40;99.90
15789;DHT22;59075;50.670;6.474;2022-09-09T16:16:16;24.30;99.90
15789;DHT22;59075;50.670;6.474;2022-09-09T16:18:44;24.40;99.90
15789;DHT22;59075;50.670;6.474;2022-09-09T16:21:15;24.40;99.90
15789;DHT22;59075;50.670;6.474;2022-09-09T16:23:42;24.40;99.90
15789;DHT22;59075;50.670;6.474;2022-09-09T16:26:11;24.40;99.90
15789;DHT22;59075;50.670;6.474;2022-09-09T16:28:38;24.40;99.90
15789;DHT22;59075;50.670;6.474;2022-09-09T16:31:05;24.40;99.90
15789;DHT22;59075;50.670;6.474;2022-09-09T16:33:33;24.30;99.90
15789;DHT22;59075;50.670;6.474;2022-09-09T16:36:05;24.40;99.90
15789;DHT22;59075;50.670;6.474;2022-09-09T16:38:32;24.40;99.90
15789;DHT22;59075;50.670;6.474;2022-09-09T16:40:59;24.40;99.90
15789;DHT22;59075;50.670;6.474;2022-09-09T16:43:26;24.40;99.90
15789;DHT22;59075;50.670;6.474;2022-09-09T16:45:53;24.40;99.90
15789;DHT22;59075;50.670;6.474;2022-09-09T16:48:20;24.30;99.90
15789;DHT22;59075;50.670;6.474;2022-09-09T16:50:47;24.20;99.90
15789;DHT22;59075;50.670;6.474;2022-09-09T16:53:14;24.40;99.90
15789;DHT22;59075;50.670;6.474;2022-09-09T16:55:41;24.40;99.90
15789;DHT22;59075;50.670;6.474;2022-09-09T16:58:10;24.30;99.90
15789;DHT22;59075;50.670;6.474;2022-09-09T17:00:37;24.30;99.90
15789;DHT22;59075;50.670;6.474;2022-09-09T17:03:04;24.30;99.90
15789;DHT22;59075;50.670;6.474;2022-09-09T17:05:31;24.30;99.90
15789;DHT22;59075;50.670;6.474;2022-09-09T17:07:59;24.30;99.90
15789;DHT22;59075;50.670;6.474;2022-09-09T17:10:26;24.30;99.90
15789;DHT22;59075;50.670;6.474;2022-09-09T17:12:55;24.30;99.90
15789;DHT22;59075;50.670;6.474;2022-09-09T17:15:22;24.30;99.90
15789;DHT22;59075;50.670;6.474;2022-09-09T17:17:49;24.30;99.90
15789;DHT22;59075;50.670;6.474;2022-09-09T17:20:20;24.30;99.90
15789;DHT22;59075;50.670;6.474;2022-09-09T17:22:47;24.30;99.90
15789;DHT22;59075;50.670;6.474;2022-09-09T17:25:15;24.30;99.90
15789;DHT22;59075;50.670;6.474;2022-09-09T17:27:43;24.20;99.90
15789;DHT22;59075;50.670;6.474;2022-09-09T17:30:11;24.30;99.90
15789;DHT22;59075;50.670;6.474;2022-09-09T17:32:38;24.30;99.90
15789;DHT22;59075;50.670;6.474;2022-09-09T17:35:05;24.20;99.90
15789;DHT22;59075;50.670;6.474;2022-09-09T17:37:32;24.20;99.90
15789;DHT22;59075;50.670;6.474;2022-09-09T17:39:59;24.30;99.90
15789;DHT22;59075;50.670;6.474;2022-09-09T17:42:27;24.20;99.90
15789;DHT22;59075;50.670;6.474;2022-09-09T17:44:54;24.20;99.90
15789;DHT22;59075;50.670;6.474;2022-09-09T17:47:20;24.20;99.90
15789;DHT22;59075;50.670;6.474;2022-09-09T17:49:47;24.30;99.90
15789;DHT22;59075;50.670;6.474;2022-09-09T17:52:14;24.20;99.90
15789;DHT22;59075;50.670;6.474;2022-09-09T17:54:41;24.40;99.90
15789;DHT22;59075;50.670;6.474;2022-09-09T17:57:08;24.20;99.90
15789;DHT22;59075;50.670;6.474;2022-09-09T17:59:36;24.10;99.90
15789;DHT22;59075;50.670;6.474;2022-09-09T18:02:03;24.10;99.90
15789;DHT22;59075;50.670;6.474;2022-09-09T18:04:30;24.20;99.90
15789;DHT22;59075;50.670;6.474;2022-09-09T18:06:57;24.20;99.90
15789;DHT22;59075;50.670;6.474;2022-09-09T18:09:25;24.20;99.90
15789;DHT22;59075;50.670;6.474;2022-09-09T18:11:54;24.20;99.90
15789;DHT22;59075;50.670;6.474;2022-09-09T18:14:23;24.10;99.90
15789;DHT22;59075;50.670;6.474;2022-09-09T18:16:52;24.10;99.90
15789;DHT22;59075;50.670;6.474;2022-09-09T18:19:21;24.10;99.90
15789;DHT22;59075;50.670;6.474;2022-09-09T18:21:49;24.20;99.90
15789;DHT22;59075;50.670;6.474;2022-09-09T18:24:18;24.20;99.90
15789;DHT22;59075;50.670;6.474;2022-09-09T18:26:46;24.20;99.90
15789;DHT22;59075;50.670;6.474;2022-09-09T18:29:15;24.10;99.90
15789;DHT22;59075;50.670;6.474;2022-09-09T18:31:44;24.10;99.90
15789;DHT22;59075;50.670;6.474;2022-09-09T18:34:15;24.10;99.90
15789;DHT22;59075;50.670;6.474;2022-09-09T18:36:44;24.10;99.90
15789;DHT22;59075;50.670;6.474;2022-09-09T18:39:14;24.10;99.90
15789;DHT22;59075;50.670;6.474;2022-09-09T18:41:43;24.10;99.90
15789;DHT22;59075;50.670;6.474;2022-09-09T18:44:13;24.10;99.90
15789;DHT22;59075;50.670;6.474;2022-09-09T18:46:40;24.10;99.90
15789;DHT22;59075;50.670;6.474;2022-09-09T18:49:08;24.40;99.90
15789;DHT22;59075;50.670;6.474;2022-09-09T18:51:37;24.10;99.90
15789;DHT22;59075;50.670;6.474;2022-09-09T18:54:09;23.90;99.90
15789;DHT22;59075;50.670;6.474;2022-09-09T18:56:36;24.10;99.90
15789;DHT22;59075;50.670;6.474;2022-09-09T18:59:05;24.10;99.90
15789;DHT22;59075;50.670;6.474;2022-09-09T19:01:33;24.10;99.90
15789;DHT22;59075;50.670;6.474;2022-09-09T19:04:01;24.10;99.90
15789;DHT22;59075;50.670;6.474;2022-09-09T19:06:30;24.10;99.90
15789;DHT22;59075;50.670;6.474;2022-09-09T19:08:58;24.10;99.90
15789;DHT22;59075;50.670;6.474;2022-09-09T19:11:26;24.10;99.90
15789;DHT22;59075;50.670;6.474;2022-09-09T19:13:55;24.10;99.90
15789;DHT22;59075;50.670;6.474;2022-09-09T19:16:22;24.10;99.90
15789;DHT22;59075;50.670;6.474;2022-09-09T19:18:50;24.10;99.90
15789;DHT22;59075;50.670;6.474;2022-09-09T19:21:19;24.10;99.90
15789;DHT22;59075;50.670;6.474;2022-09-09T19:23:53;24.00;99.90
15789;DHT22;59075;50.670;6.474;2022-09-09T19:26:21;24.00;99.90
15789;DHT22;59075;50.670;6.474;2022-09-09T19:28:48;24.00;99.90
15789;DHT22;59075;50.670;6.474;2022-09-09T19:31:17;24.00;99.90
15789;DHT22;59075;50.670;6.474;2022-09-09T19:33:46;24.00;99.90
15789;DHT22;59075;50.670;6.474;2022-09-09T19:36:15;24.10;99.90
15789;DHT22;59075;50.670;6.474;2022-09-09T19:38:43;24.00;99.90
15789;DHT22;59075;50.670;6.474;2022-09-09T19:41:12;24.00;99.90
15789;DHT22;59075;50.670;6.474;2022-09-09T19:43:40;24.00;99.90
15789;DHT22;59075;50.670;6.474;2022-09-09T19:46:09;24.00;99.90
15789;DHT22;59075;50.670;6.474;2022-09-09T19:48:38;24.00;99.90
15789;DHT22;59075;50.670;6.474;2022-09-09T19:51:07;24.10;99.90
15789;DHT22;59075;50.670;6.474;2022-09-09T19:53:36;24.00;99.90
15789;DHT22;59075;50.670;6.474;2022-09-09T19:56:03;23.90;99.90
15789;DHT22;59075;50.670;6.474;2022-09-09T19:58:30;24.00;99.90
15789;DHT22;59075;50.670;6.474;2022-09-09T20:01:06;24.00;99.90
15789;DHT22;59075;50.670;6.474;2022-09-09T20:03:34;24.00;99.90
15789;DHT22;59075;50.670;6.474;2022-09-09T20:06:00;24.00;99.90
15789;DHT22;59075;50.670;6.474;2022-09-09T20:08:27;24.00;99.90
15789;DHT22;59075;50.670;6.474;2022-09-09T20:10:55;23.90;99.90
15789;DHT22;59075;50.670;6.474;2022-09-09T20:13:22;24.00;99.90
15789;DHT22;59075;50.670;6.474;2022-09-09T20:15:56;24.00;99.90
15789;DHT22;59075;50.670;6.474;2022-09-09T20:18:27;24.00;99.90
15789;DHT22;59075;50.670;6.474;2022-09-09T20:20:57;24.00;99.90
15789;DHT22;59075;50.670;6.474;2022-09-09T20:23:25;24.10;99.90
15789;DHT22;59075;50.670;6.474;2022-09-09T20:25:52;24.00;99.90
15789;DHT22;59075;50.670;6.474;2022-09-09T20:28:19;23.90;99.90
15789;DHT22;59075;50.670;6.474;2022-09-09T20:30:46;24.00;99.90
15789;DHT22;59075;50.670;6.474;2022-09-09T20:33:15;24.10;99.90
15789;DHT22;59075;50.670;6.474;2022-09-09T20:35:43;24.10;99.90
15789;DHT22;59075;50.670;6.474;2022-09-09T20:38:10;24.10;99.90
15789;DHT22;59075;50.670;6.474;2022-09-09T20:40:37;23.90;99.90
15789;DHT22;59075;50.670;6.474;2022-09-09T20:43:05;24.00;99.90
15789;DHT22;59075;50.670;6.474;2022-09-09T20:45:35;24.10;99.90
15789;DHT22;59075;50.670;6.474;2022-09-09T20:48:02;24.00;99.90